createdAt,value
2023-03-20T00:02:06.887Z,69.70
2023-03-20T00:04:35.515Z,69.70
2023-03-20T00:07:03.867Z,69.60
2023-03-20T00:09:32.975Z,69.60
2023-03-20T00:12:01.639Z,69.60
2023-03-20T00:14:29.857Z,69.40
2023-03-20T00:16:58.054Z,69.50
2023-03-20T00:19:29.470Z,69.50
2023-03-20T00:21:58.428Z,69.70
2023-03-20T00:24:27.094Z,69.70
2023-03-20T00:26:55.939Z,69.70
2023-03-20T00:29:26.745Z,69.70
2023-03-20T00:31:55.705Z,69.90
2023-03-20T00:34:25.905Z,69.90
2023-03-20T00:36:56.368Z,69.90
2023-03-20T00:39:25.072Z,70.00
2023-03-20T00:41:56.067Z,69.90
2023-03-20T00:44:26.768Z,69.90
2023-03-20T00:46:57.285Z,70.00
2023-03-20T00:49:29.198Z,70.10
2023-03-20T00:51:59.195Z,70.20
2023-03-20T00:54:27.573Z,70.10
2023-03-20T00:56:59.335Z,70.10
2023-03-20T00:59:30.193Z,70.10
2023-03-20T01:01:58.744Z,70.20
2023-03-20T01:04:35.521Z,70.10
2023-03-20T01:07:06.179Z,70.20
2023-03-20T01:09:34.797Z,70.10
2023-03-20T01:12:04.362Z,70.10
2023-03-20T01:14:32.846Z,70.20
2023-03-20T01:17:01.167Z,70.20
2023-03-20T01:19:29.402Z,70.20
2023-03-20T01:21:57.600Z,70.10
2023-03-20T01:24:27.290Z,70.20
2023-03-20T01:26:55.491Z,70.20
2023-03-20T01:29:25.547Z,70.30
2023-03-20T01:31:54.626Z,70.20
2023-03-20T01:34:23.534Z,70.20
2023-03-20T01:36:54.697Z,70.10
2023-03-20T01:39:24.544Z,70.10
2023-03-20T01:41:54.938Z,70.10
2023-03-20T01:44:25.450Z,70.10
2023-03-20T01:46:55.498Z,70.10
2023-03-20T01:50:00.806Z,70.20
2023-03-20T01:52:29.085Z,70.40
2023-03-20T01:54:57.436Z,70.30
2023-03-20T01:57:27.501Z,70.40
2023-03-20T02:00:01.652Z,70.50
2023-03-20T02:02:32.169Z,70.50
2023-03-20T02:05:04.480Z,70.50
2023-03-20T02:07:34.842Z,70.60
2023-03-20T02:10:05.314Z,70.70
2023-03-20T02:12:35.923Z,70.60
2023-03-20T02:15:05.436Z,70.80
2023-03-20T02:17:34.071Z,71.00
2023-03-20T02:20:13.049Z,71.00
2023-03-20T02:23:17.480Z,71.00
2023-03-20T02:26:17.268Z,71.10
2023-03-20T02:29:18.669Z,71.10
2023-03-20T02:32:42.722Z,70.80
2023-03-20T02:35:48.980Z,70.80
2023-03-20T02:38:38.862Z,70.70
2023-03-20T02:41:14.744Z,70.80
2023-03-20T02:43:49.322Z,70.80
2023-03-20T02:46:30.501Z,70.90
2023-03-20T02:49:02.515Z,71.20
2023-03-20T02:51:38.538Z,71.10
2023-03-20T02:54:14.566Z,71.40
2023-03-20T02:56:53.213Z,71.30
2023-03-20T02:59:27.871Z,71.40
2023-03-20T03:02:00.617Z,71.20
2023-03-20T03:04:33.474Z,71.00
2023-03-20T03:07:05.024Z,71.00
2023-03-20T03:09:39.420Z,71.00
2023-03-20T03:12:12.458Z,70.90
2023-03-20T03:14:44.964Z,70.60
2023-03-20T03:17:15.490Z,70.60
2023-03-20T03:19:49.185Z,70.80
2023-03-20T03:22:17.984Z,70.90
2023-03-20T03:24:48.923Z,71.10
2023-03-20T03:27:22.252Z,71.40
2023-03-20T03:29:54.067Z,71.60
2023-03-20T03:32:24.240Z,71.80
2023-03-20T03:34:52.689Z,71.50
2023-03-20T03:37:30.225Z,71.30
2023-03-20T03:40:11.823Z,71.60
2023-03-20T03:42:45.203Z,71.50
2023-03-20T03:45:17.331Z,71.40
2023-03-20T03:47:52.216Z,71.60
2023-03-20T03:50:26.850Z,71.60
2023-03-20T03:52:59.704Z,71.60
2023-03-20T03:55:35.039Z,71.60
2023-03-20T03:58:07.086Z,71.60
2023-03-20T04:00:35.552Z,71.60
2023-03-20T04:03:07.433Z,71.40
2023-03-20T04:05:37.989Z,71.30
2023-03-20T04:08:07.618Z,71.30
2023-03-20T04:10:37.203Z,72.10
2023-03-20T04:13:05.551Z,71.60
2023-03-20T04:15:33.899Z,71.90
2023-03-20T04:18:02.210Z,72.20
2023-03-20T04:20:30.736Z,72.60
2023-03-20T04:22:58.968Z,72.80
2023-03-20T04:25:27.773Z,72.90
2023-03-20T04:27:57.437Z,73.10
2023-03-20T04:30:25.742Z,73.10
2023-03-20T04:32:53.920Z,73.00
2023-03-20T04:35:22.144Z,73.00
2023-03-20T04:37:50.311Z,73.10
2023-03-20T04:40:18.918Z,73.20
2023-03-20T04:42:47.080Z,73.20
2023-03-20T04:45:16.722Z,73.10
2023-03-20T04:47:44.867Z,73.20
2023-03-20T04:50:14.183Z,73.20
2023-03-20T04:52:42.369Z,73.40
2023-03-20T04:55:10.766Z,73.30
2023-03-20T04:57:38.988Z,73.30
2023-03-20T05:00:08.385Z,73.40
2023-03-20T05:02:38.138Z,73.40
2023-03-20T05:05:07.100Z,73.40
2023-03-20T05:07:35.408Z,73.30
2023-03-20T05:10:03.825Z,73.50
2023-03-20T05:12:32.024Z,73.40
2023-03-20T05:15:00.356Z,73.40
2023-03-20T05:17:28.611Z,73.30
2023-03-20T05:19:58.401Z,73.40
2023-03-20T05:22:26.743Z,73.40
2023-03-20T05:24:55.013Z,73.20
2023-03-20T05:27:23.200Z,73.20
2023-03-20T05:29:51.350Z,73.00
2023-03-20T05:32:19.476Z,72.70
2023-03-20T05:34:47.747Z,72.60
2023-03-20T05:37:17.320Z,72.60
2023-03-20T05:39:46.655Z,72.50
2023-03-20T05:42:14.814Z,72.30
2023-03-20T05:44:43.029Z,72.10
2023-03-20T05:47:11.507Z,72.10
2023-03-20T05:49:39.627Z,72.10
2023-03-20T05:52:08.041Z,72.00
2023-03-20T05:54:37.605Z,71.90
2023-03-20T05:57:05.965Z,71.70
2023-03-20T05:59:34.128Z,71.60
2023-03-20T06:02:02.297Z,71.60
2023-03-20T06:04:30.763Z,71.50
2023-03-20T06:06:58.904Z,71.60
2023-03-20T06:09:27.257Z,72.40
2023-03-20T06:11:57.359Z,71.70
2023-03-20T06:14:25.680Z,71.70
2023-03-20T06:16:54.313Z,71.60
2023-03-20T06:19:22.935Z,71.40
2023-03-20T06:21:51.723Z,71.30
2023-03-20T06:24:20.079Z,71.30
2023-03-20T06:26:48.249Z,71.30
2023-03-20T06:29:17.797Z,71.30
2023-03-20T06:31:46.206Z,71.30
2023-03-20T06:34:14.392Z,71.30
2023-03-20T06:36:45.149Z,71.30
2023-03-20T06:39:14.145Z,71.10
2023-03-20T06:41:42.342Z,71.10
2023-03-20T06:44:10.882Z,70.90
2023-03-20T06:46:40.509Z,71.00
2023-03-20T06:49:08.707Z,70.80
2023-03-20T06:51:37.229Z,70.60
2023-03-20T06:54:05.630Z,70.40
2023-03-20T06:56:33.777Z,70.40
2023-03-20T06:59:01.925Z,71.20
2023-03-20T07:01:30.149Z,70.70
2023-03-20T07:04:00.683Z,70.60
2023-03-20T07:06:28.817Z,70.60
2023-03-20T07:08:57.009Z,70.60
2023-03-20T07:11:25.177Z,70.60
2023-03-20T07:13:53.387Z,70.60
2023-03-20T07:16:21.784Z,70.70
2023-03-20T07:18:49.942Z,70.80
2023-03-20T07:21:23.077Z,70.50
2023-03-20T07:23:51.251Z,70.20
2023-03-20T07:26:19.450Z,70.00
2023-03-20T07:28:47.619Z,70.00
2023-03-20T07:31:22.117Z,69.80
2023-03-20T07:33:50.667Z,69.80
2023-03-20T07:36:20.318Z,69.80
2023-03-20T07:38:48.706Z,69.80
2023-03-20T07:41:16.896Z,69.90
2023-03-20T07:43:45.066Z,70.00
2023-03-20T07:46:13.259Z,69.80
2023-03-20T07:48:41.533Z,69.80
2023-03-20T07:51:09.710Z,69.90
2023-03-20T07:53:39.275Z,69.70
2023-03-20T07:56:08.272Z,69.60
2023-03-20T07:58:36.450Z,69.60
2023-03-20T08:01:05.324Z,69.70
2023-03-20T08:03:34.037Z,69.80
2023-03-20T08:06:04.220Z,69.70
2023-03-20T08:08:32.460Z,69.60
2023-03-20T08:11:02.519Z,69.50
2023-03-20T08:13:30.776Z,69.50
2023-03-20T08:15:59.209Z,69.50
2023-03-20T08:18:27.355Z,69.60
2023-03-20T08:20:55.542Z,69.70
2023-03-20T08:23:23.893Z,69.90
2023-03-20T08:25:54.206Z,70.00
2023-03-20T08:28:40.221Z,70.00
2023-03-20T08:31:13.126Z,69.90
2023-03-20T08:33:41.573Z,69.70
2023-03-20T08:36:10.169Z,69.60
2023-03-20T08:38:38.348Z,69.50
2023-03-20T08:41:08.073Z,69.40
2023-03-20T08:43:37.606Z,69.20
2023-03-20T08:46:06.754Z,69.10
2023-03-20T08:48:34.963Z,68.70
2023-03-20T08:51:03.356Z,68.20
2023-03-20T08:53:31.571Z,68.10
2023-03-20T08:55:59.780Z,68.20
2023-03-20T08:58:28.984Z,68.10
2023-03-20T09:01:03.046Z,67.90
2023-03-20T09:03:31.845Z,67.60
2023-03-20T09:06:00.178Z,67.70
2023-03-20T09:08:28.356Z,67.80
2023-03-20T09:10:56.551Z,67.50
2023-03-20T09:13:27.456Z,67.20
2023-03-20T09:15:58.295Z,67.00
2023-03-20T09:18:26.650Z,67.00
2023-03-20T09:20:56.510Z,67.00
2023-03-20T09:23:24.759Z,66.80
2023-03-20T09:25:52.928Z,66.40
2023-03-20T09:28:21.170Z,66.30
2023-03-20T09:30:49.424Z,66.10
2023-03-20T09:33:19.259Z,65.90
2023-03-20T09:35:47.484Z,65.50
2023-03-20T09:38:15.723Z,65.30
2023-03-20T09:40:52.523Z,65.20
2023-03-20T09:43:43.876Z,64.60
2023-03-20T09:46:27.523Z,64.30
2023-03-20T09:49:03.638Z,64.30
2023-03-20T09:51:39.357Z,64.50
2023-03-20T09:54:13.167Z,64.40
2023-03-20T09:56:41.752Z,64.40
2023-03-20T09:59:12.900Z,64.10
2023-03-20T10:01:47.281Z,64.00
2023-03-20T10:04:16.911Z,63.50
2023-03-20T10:06:45.356Z,63.40
2023-03-20T10:09:17.657Z,63.20
2023-03-20T10:12:20.859Z,63.10
2023-03-20T10:14:59.412Z,62.90
2023-03-20T10:17:48.206Z,62.20
2023-03-20T10:20:27.040Z,61.80
2023-03-20T10:22:59.826Z,61.60
2023-03-20T10:25:32.948Z,61.80
2023-03-20T10:28:04.330Z,61.50
2023-03-20T10:30:48.547Z,61.70
2023-03-20T10:33:38.710Z,61.70
2023-03-20T10:36:25.238Z,61.20
2023-03-20T10:38:58.251Z,61.40
2023-03-20T10:41:30.943Z,61.60
2023-03-20T10:44:00.102Z,61.20
2023-03-20T10:46:31.882Z,62.10
2023-03-20T10:49:03.174Z,61.30
2023-03-20T10:51:41.088Z,61.40
2023-03-20T10:54:22.515Z,61.30
2023-03-20T10:56:52.288Z,61.30
2023-03-20T10:59:24.840Z,61.30
2023-03-20T11:01:52.987Z,61.10
2023-03-20T11:04:21.409Z,61.20
2023-03-20T11:07:00.938Z,61.30
2023-03-20T11:09:30.420Z,61.00
2023-03-20T11:12:00.019Z,60.70
2023-03-20T11:14:36.528Z,60.70
2023-03-20T11:17:06.174Z,60.70
2023-03-20T11:19:36.322Z,61.00
2023-03-20T11:22:11.446Z,60.90
2023-03-20T11:24:43.738Z,60.70
2023-03-20T11:27:14.242Z,61.00
2023-03-20T11:29:45.731Z,61.70
2023-03-20T11:32:25.287Z,60.90
2023-03-20T11:34:57.393Z,61.10
2023-03-20T11:37:29.527Z,61.30
2023-03-20T11:40:06.649Z,61.10
2023-03-20T11:42:36.948Z,60.90
2023-03-20T11:45:07.571Z,61.20
2023-03-20T11:47:37.159Z,60.90
2023-03-20T11:50:07.792Z,61.00
2023-03-20T11:52:40.248Z,60.70
2023-03-20T11:55:24.100Z,60.40
2023-03-20T11:57:52.390Z,60.00
2023-03-20T12:00:22.839Z,59.50
2023-03-20T12:02:51.697Z,58.90
2023-03-20T12:05:29.914Z,58.80
2023-03-20T12:08:02.886Z,58.70
2023-03-20T12:10:37.169Z,59.20
2023-03-20T12:13:12.901Z,59.00
2023-03-20T12:15:45.928Z,58.60
2023-03-20T12:18:20.793Z,58.60
2023-03-20T12:21:03.494Z,58.00
2023-03-20T12:23:36.972Z,57.50
2023-03-20T12:26:08.361Z,57.10
2023-03-20T12:28:42.658Z,57.00
2023-03-20T12:31:21.923Z,56.90
2023-03-20T12:33:54.518Z,56.30
2023-03-20T12:36:28.211Z,55.90
2023-03-20T12:38:57.946Z,54.80
2023-03-20T12:41:30.597Z,54.50
2023-03-20T12:44:20.957Z,53.90
2023-03-20T12:46:55.667Z,53.70
2023-03-20T12:49:35.511Z,53.80
2023-03-20T12:52:14.233Z,53.30
2023-03-20T12:55:13.227Z,53.70
2023-03-20T12:57:51.536Z,53.80
2023-03-20T13:00:31.004Z,52.80
2023-03-20T13:03:12.989Z,52.50
2023-03-20T13:05:46.603Z,52.30
2023-03-20T13:08:33.843Z,54.40
2023-03-20T13:11:14.365Z,52.50
2023-03-20T13:13:49.718Z,52.30
2023-03-20T13:16:25.857Z,52.20
2023-03-20T13:19:02.121Z,52.10
2023-03-20T13:21:37.419Z,52.20
2023-03-20T13:24:28.383Z,51.90
2023-03-20T13:27:02.787Z,51.40
2023-03-20T13:29:41.386Z,51.30
2023-03-20T13:32:21.384Z,50.90
2023-03-20T13:35:05.434Z,50.00
2023-03-20T13:37:36.854Z,49.80
2023-03-20T13:40:12.547Z,50.40
2023-03-20T13:42:51.599Z,50.00
2023-03-20T13:45:30.557Z,49.60
2023-03-20T13:48:05.346Z,49.50
2023-03-20T13:50:44.310Z,49.10
2023-03-20T13:53:21.148Z,48.50
2023-03-20T13:55:56.627Z,48.30
2023-03-20T13:58:41.086Z,48.30
2023-03-20T14:01:16.056Z,48.10
2023-03-20T14:03:47.084Z,48.20
2023-03-20T14:06:52.104Z,48.30
2023-03-20T14:09:36.404Z,48.20
2023-03-20T14:12:07.917Z,48.20
2023-03-20T14:14:44.491Z,48.60
2023-03-20T14:17:19.106Z,48.20
2023-03-20T14:19:48.398Z,47.90
2023-03-20T14:22:19.926Z,48.50
2023-03-20T14:24:55.164Z,48.50
2023-03-20T14:27:42.971Z,48.30
2023-03-20T14:30:51.881Z,48.80
2023-03-20T14:33:31.612Z,48.60
2023-03-20T14:36:20.865Z,48.80
2023-03-20T14:39:03.917Z,48.80
2023-03-20T14:41:40.511Z,49.00
2023-03-20T14:44:23.414Z,49.00
2023-03-20T14:47:02.881Z,48.50
2023-03-20T14:49:48.104Z,48.40
2023-03-20T14:52:31.579Z,48.70
2023-03-20T14:55:16.567Z,48.70
2023-03-20T14:57:55.977Z,48.30
2023-03-20T15:00:27.348Z,48.60
2023-03-20T15:03:05.681Z,48.30
2023-03-20T15:05:36.923Z,48.70
2023-03-20T15:08:08.524Z,48.60
2023-03-20T15:10:45.295Z,48.60
2023-03-20T15:13:15.939Z,48.30
2023-03-20T15:15:54.956Z,48.10
2023-03-20T15:18:26.696Z,48.10
2023-03-20T15:20:57.529Z,48.50
2023-03-20T15:23:26.736Z,48.30
2023-03-20T15:25:54.961Z,48.50
2023-03-20T15:28:26.373Z,48.80
2023-03-20T15:30:58.549Z,48.90
2023-03-20T15:33:30.185Z,49.10
2023-03-20T15:35:58.953Z,49.40
2023-03-20T15:38:32.905Z,50.00
2023-03-20T15:41:01.143Z,50.30
2023-03-20T15:43:29.693Z,50.80
2023-03-20T15:46:16.987Z,51.10
2023-03-20T15:48:50.892Z,51.10
2023-03-20T15:51:19.784Z,51.10
2023-03-20T15:53:49.188Z,51.50
2023-03-20T15:56:19.878Z,51.50
2023-03-20T15:58:52.333Z,52.20
2023-03-20T16:01:22.766Z,52.70
2023-03-20T16:03:53.020Z,52.90
2023-03-20T16:06:23.281Z,53.40
2023-03-20T16:08:59.545Z,53.80
2023-03-20T16:11:37.964Z,54.30
2023-03-20T16:14:07.884Z,54.30
2023-03-20T16:16:37.754Z,54.50
2023-03-20T16:19:08.789Z,54.70
2023-03-20T16:21:40.806Z,55.00
2023-03-20T16:24:12.450Z,55.00
2023-03-20T16:26:45.371Z,55.40
2023-03-20T16:29:15.678Z,55.20
2023-03-20T16:31:49.691Z,55.50
2023-03-20T16:34:22.976Z,55.50
2023-03-20T16:36:55.455Z,55.40
2023-03-20T16:39:25.730Z,55.60
2023-03-20T16:42:12.488Z,55.70
2023-03-20T16:44:42.717Z,56.00
2023-03-20T16:47:23.593Z,56.10
2023-03-20T16:50:17.386Z,56.10
2023-03-20T16:52:49.118Z,56.40
2023-03-20T16:55:22.504Z,56.10
2023-03-20T16:57:54.242Z,56.20
2023-03-20T17:00:26.357Z,56.30
2023-03-20T17:03:01.559Z,56.20
2023-03-20T17:05:50.560Z,56.00
2023-03-20T17:08:28.140Z,55.90
2023-03-20T17:11:00.036Z,55.90
2023-03-20T17:13:28.053Z,55.90
2023-03-20T17:15:56.681Z,56.00
2023-03-20T17:18:24.919Z,55.80
2023-03-20T17:20:54.641Z,55.80
2023-03-20T17:23:23.910Z,55.70
2023-03-20T17:25:52.798Z,55.70
2023-03-20T17:28:23.342Z,55.60
2023-03-20T17:30:52.785Z,55.80
2023-03-20T17:33:22.075Z,56.40
2023-03-20T17:35:51.033Z,55.90
2023-03-20T17:38:22.885Z,56.00
2023-03-20T17:40:51.896Z,56.50
2023-03-20T17:43:21.130Z,56.60
2023-03-20T17:45:49.484Z,56.80
2023-03-20T17:48:20.791Z,56.80
2023-03-20T17:50:51.329Z,57.00
2023-03-20T17:53:24.234Z,56.80
2023-03-20T17:55:52.817Z,57.00
2023-03-20T17:58:23.303Z,57.00
2023-03-20T18:00:52.407Z,57.00
2023-03-20T18:03:21.454Z,57.10
2023-03-20T18:05:51.287Z,57.30
2023-03-20T18:08:22.496Z,57.30
2023-03-20T18:10:52.853Z,57.30
2023-03-20T18:13:21.703Z,57.40
2023-03-20T18:15:51.565Z,57.50
2023-03-20T18:18:22.539Z,57.50
2023-03-20T18:20:52.290Z,57.60
2023-03-20T18:23:21.961Z,57.70
2023-03-20T18:25:50.401Z,57.80
2023-03-20T18:28:23.078Z,58.20
2023-03-20T18:30:51.832Z,59.00
2023-03-20T18:33:25.297Z,58.70
2023-03-20T18:35:53.666Z,58.80
2023-03-20T18:38:24.811Z,59.10
2023-03-20T18:40:52.976Z,59.30
2023-03-20T18:43:21.286Z,59.40
2023-03-20T18:45:49.568Z,59.80
2023-03-20T18:48:18.098Z,60.20
2023-03-20T18:50:50.970Z,60.40
2023-03-20T18:53:19.597Z,60.70
2023-03-20T18:55:49.133Z,61.10
2023-03-20T18:58:22.625Z,61.40
2023-03-20T19:00:51.504Z,61.80
2023-03-20T19:03:23.764Z,61.90
2023-03-20T19:05:52.992Z,62.10
2023-03-20T19:08:21.471Z,62.10
2023-03-20T19:10:51.755Z,62.40
2023-03-20T19:13:22.039Z,62.70
2023-03-20T19:15:50.240Z,62.90
2023-03-20T19:18:22.487Z,62.80
2023-03-20T19:20:52.030Z,62.90
2023-03-20T19:23:21.507Z,62.90
2023-03-20T19:25:52.802Z,63.10
2023-03-20T19:28:36.999Z,63.30
2023-03-20T19:31:07.961Z,63.40
2023-03-20T19:33:36.838Z,63.40
2023-03-20T19:36:06.658Z,63.50
2023-03-20T19:38:37.062Z,63.70
2023-03-20T19:41:08.705Z,63.70
2023-03-20T19:43:51.411Z,63.90
2023-03-20T19:46:38.102Z,64.00
2023-03-20T19:49:07.263Z,63.80
2023-03-20T19:51:35.575Z,63.90
2023-03-20T19:54:04.044Z,63.90
2023-03-20T19:56:34.644Z,64.00
2023-03-20T19:59:03.209Z,64.10
2023-03-20T20:01:31.504Z,64.10
2023-03-20T20:03:59.961Z,63.90
2023-03-20T20:06:32.435Z,63.90
2023-03-20T20:09:01.177Z,64.00
2023-03-20T20:11:29.752Z,64.80
2023-03-20T20:14:09.077Z,64.20
2023-03-20T20:16:39.683Z,64.40
2023-03-20T20:19:08.215Z,64.40
2023-03-20T20:22:19.473Z,64.40
2023-03-20T20:24:24.752Z,64.50
2023-03-20T20:27:03.470Z,64.30
2023-03-20T20:29:42.569Z,64.50
2023-03-20T20:32:10.826Z,64.40
2023-03-20T20:38:19.604Z,64.30
2023-03-20T20:40:19.032Z,64.20
2023-03-20T20:42:49.385Z,66.40
2023-03-20T20:45:20.043Z,66.50
2023-03-20T20:47:49.214Z,65.80
2023-03-20T20:50:20.063Z,64.90
2023-03-20T20:52:48.386Z,63.30
2023-03-20T20:55:23.125Z,61.90
2023-03-20T20:57:52.684Z,60.70
2023-03-20T21:00:37.079Z,60.00
2023-03-20T21:03:13.611Z,59.60
2023-03-20T21:05:43.376Z,59.70
2023-03-20T21:08:14.065Z,59.80
2023-03-20T21:10:42.652Z,59.70
2023-03-20T21:13:10.843Z,59.90
2023-03-20T21:15:41.097Z,59.90
2023-03-20T21:18:09.483Z,60.10
2023-03-20T21:20:37.804Z,60.30
2023-03-20T21:23:06.354Z,60.50
2023-03-20T21:25:40.661Z,60.70
2023-03-20T21:28:10.411Z,61.00
2023-03-20T21:30:51.047Z,61.10
2023-03-20T21:33:30.407Z,61.30
2023-03-20T21:35:59.003Z,61.40
2023-03-20T21:39:01.963Z,61.50
2023-03-20T21:41:15.821Z,61.60
2023-03-20T21:43:47.247Z,61.50
2023-03-20T21:49:58.455Z,61.80
2023-03-20T22:03:25.774Z,62.40
2023-03-20T22:09:38.641Z,62.30
2023-03-20T22:12:16.570Z,62.40
2023-03-20T22:15:12.044Z,62.40
2023-03-20T22:20:49.804Z,62.60
2023-03-20T22:40:35.486Z,63.10
2023-03-20T22:42:55.842Z,63.20
2023-03-20T22:47:53.413Z,63.30
2023-03-20T22:50:21.554Z,63.30
2023-03-20T22:52:53.702Z,63.40
2023-03-20T22:55:22.735Z,63.40
2023-03-20T22:58:05.963Z,63.60
2023-03-20T23:00:35.829Z,64.40
2023-03-20T23:03:19.527Z,63.70
2023-03-20T23:05:51.564Z,63.70
2023-03-20T23:08:21.512Z,63.80
2023-03-20T23:10:51.800Z,64.00
2023-03-20T23:13:22.714Z,64.20
2023-03-20T23:15:51.796Z,64.30
2023-03-20T23:18:20.957Z,64.30
2023-03-20T23:20:49.181Z,64.30
2023-03-20T23:23:18.003Z,64.30
2023-03-20T23:25:47.582Z,64.20
2023-03-20T23:28:15.983Z,64.20
2023-03-20T23:30:49.839Z,64.10
2023-03-20T23:33:25.373Z,64.30
2023-03-20T23:36:14.075Z,64.30
2023-03-20T23:38:46.266Z,64.40
2023-03-20T23:41:15.990Z,64.50
2023-03-20T23:43:44.328Z,64.50
2023-03-20T23:46:12.799Z,64.60
2023-03-20T23:48:41.161Z,64.60
2023-03-20T23:51:09.849Z,64.60
2023-03-20T23:53:38.084Z,64.60
2023-03-20T23:56:07.773Z,64.60
